Time;durP1;ratioP1;P1;durP2;ratioP2;P2;SDS_P1;SDS_P2;PMS_P1;PMS_P2;Temp;Humidity;BMP_temperature;BMP_pressure;BME280_temperature;BME280_humidity;BME280_pressure;Samples;Min_cycle;Max_cycle;Signal;HPM_P1;HPM_P2
2022/06/24 00:01:54;;;;;;;13.77;8.30;;;;;;;;;;4939513;28;20046;-69
2022/06/24 00:04:22;;;;;;;11.88;7.68;;;;;;;;;;4944511;28;20113;-69
2022/06/24 00:06:50;;;;;;;12.95;8.13;;;;;;;;;;4943660;28;20043;-69
2022/06/24 00:09:18;;;;;;;12.82;9.27;;;;;;;;;;4946426;28;20055;-69
2022/06/24 00:11:45;;;;;;;12.10;8.90;;;;;;;;;;4944974;28;20055;-69
2022/06/24 00:14:14;;;;;;;15.68;10.10;;;;;;;;;;4942384;28;20054;-69
2022/06/24 00:16:58;;;;;;;14.25;9.02;;;;;;;;;;4943327;28;20073;-69
2022/06/24 00:19:26;;;;;;;15.55;9.07;;;;;;;;;;4943896;28;20117;-68
2022/06/24 00:22:05;;;;;;;15.43;9.20;;;;;;;;;;4938182;28;20063;-68
2022/06/24 00:24:33;;;;;;;16.77;10.98;;;;;;;;;;4947340;28;20063;-68
2022/06/24 00:27:00;;;;;;;20.95;11.43;;;;;;;;;;4945848;28;20553;-68
2022/06/24 00:29:31;;;;;;;16.02;10.38;;;;;;;;;;4946518;28;20101;-68
2022/06/24 00:32:02;;;;;;;14.50;11.32;;;;;;;;;;4954797;28;20051;-68
2022/06/24 00:34:29;;;;;;;16.52;11.25;;;;;;;;;;4944184;28;20085;-68
2022/06/24 00:36:56;;;;;;;16.38;11.38;;;;;;;;;;4946424;28;20429;-68
2022/06/24 00:39:32;;;;;;;17.55;11.90;;;;;;;;;;4943257;28;20113;-68
2022/06/24 00:41:59;;;;;;;19.10;12.07;;;;;;;;;;4945525;28;20570;-68
2022/06/24 00:44:27;;;;;;;18.88;12.73;;;;;;;;;;4942012;28;20059;-68
2022/06/24 00:46:59;;;;;;;18.98;11.50;;;;;;;;;;4945910;28;20506;-68
2022/06/24 00:49:28;;;;;;;17.90;11.13;;;;;;;;;;4962240;28;20054;-68
2022/06/24 00:51:56;;;;;;;15.80;12.35;;;;;;;;;;4940506;28;20399;-68
2022/06/24 00:54:24;;;;;;;21.02;11.63;;;;;;;;;;4939256;28;20065;-68
2022/06/24 00:56:55;;;;;;;17.50;11.95;;;;;;;;;;4938316;28;20054;-68
2022/06/24 00:59:23;;;;;;;15.43;12.23;;;;;;;;;;4939388;28;20059;-68
2022/06/24 01:01:51;;;;;;;15.25;11.60;;;;;;;;;;4946525;28;20059;-71
2022/06/24 01:04:19;;;;;;;15.48;11.38;;;;;;;;;;4944611;28;20057;-70
2022/06/24 01:06:46;;;;;;;17.23;11.35;;;;;;;;;;4941011;28;20050;-70
2022/06/24 01:09:16;;;;;;;19.08;11.63;;;;;;;;;;4944607;28;20051;-70
2022/06/24 01:11:44;;;;;;;18.00;12.02;;;;;;;;;;4939982;28;20053;-70
2022/06/24 01:14:11;;;;;;;14.63;10.65;;;;;;;;;;4937445;28;20098;-70
2022/06/24 01:16:39;;;;;;;17.05;11.50;;;;;;;;;;4945318;28;20110;-70
2022/06/24 01:19:07;;;;;;;18.80;11.75;;;;;;;;;;4940774;28;20046;-70
2022/06/24 01:21:36;;;;;;;19.25;11.63;;;;;;;;;;4957409;28;20058;-70
2022/06/24 01:24:05;;;;;;;21.00;12.82;;;;;;;;;;4940030;28;20055;-70
2022/06/24 01:26:32;;;;;;;18.95;12.70;;;;;;;;;;4940562;28;20125;-70
2022/06/24 01:28:59;;;;;;;19.38;12.07;;;;;;;;;;4940883;28;20047;-70
2022/06/24 01:31:26;;;;;;;31.60;12.85;;;;;;;;;;4957328;28;20553;-70
2022/06/24 01:33:53;;;;;;;22.77;13.10;;;;;;;;;;4939161;28;20055;-70
2022/06/24 01:36:21;;;;;;;17.45;12.52;;;;;;;;;;4933696;28;20039;-70
2022/06/24 01:38:49;;;;;;;17.17;11.70;;;;;;;;;;4941396;28;20129;-70
2022/06/24 01:41:17;;;;;;;26.00;12.98;;;;;;;;;;4944480;28;20051;-70
2022/06/24 01:43:44;;;;;;;19.65;11.98;;;;;;;;;;4942274;28;20066;-70
2022/06/24 01:46:12;;;;;;;15.18;11.55;;;;;;;;;;4938353;28;20128;-70
2022/06/24 01:48:39;;;;;;;16.45;11.40;;;;;;;;;;4940591;28;20059;-70
2022/06/24 01:51:07;;;;;;;20.73;12.60;;;;;;;;;;4937825;28;20055;-70
2022/06/24 01:53:34;;;;;;;17.95;11.85;;;;;;;;;;4940159;28;20745;-70
2022/06/24 01:56:03;;;;;;;17.63;11.30;;;;;;;;;;4938324;28;20054;-70
2022/06/24 01:58:30;;;;;;;18.38;10.77;;;;;;;;;;4937891;28;20063;-70
2022/06/24 02:00:57;;;;;;;20.98;11.85;;;;;;;;;;4937093;28;20082;-70
2022/06/24 02:03:24;;;;;;;20.60;11.25;;;;;;;;;;4945935;28;20062;-70
2022/06/24 02:05:53;;;;;;;17.65;10.50;;;;;;;;;;4938208;28;20104;-70
2022/06/24 02:08:20;;;;;;;20.75;10.25;;;;;;;;;;4941171;28;20063;-70
2022/06/24 02:13:33;;;;;;;20.85;11.70;;;;;;;;;;4938944;28;20172;-70
2022/06/24 02:16:02;;;;;;;19.60;12.23;;;;;;;;;;4936381;28;20122;-70
2022/06/24 02:18:30;;;;;;;17.75;11.80;;;;;;;;;;4939161;28;20063;-70
2022/06/24 02:20:58;;;;;;;18.38;10.88;;;;;;;;;;4946575;28;20099;-70
2022/06/24 02:23:25;;;;;;;15.98;11.05;;;;;;;;;;4939795;28;20117;-70
2022/06/24 02:25:53;;;;;;;16.88;11.73;;;;;;;;;;4942283;28;20141;-70
2022/06/24 02:28:20;;;;;;;16.95;11.40;;;;;;;;;;4939686;28;20671;-70
2022/06/24 02:30:49;;;;;;;14.93;11.77;;;;;;;;;;4945023;28;20051;-70
2022/06/24 02:33:16;;;;;;;17.88;11.40;;;;;;;;;;4944808;28;20058;-70
2022/06/24 02:35:43;;;;;;;18.30;12.40;;;;;;;;;;4965533;28;20059;-70
2022/06/24 02:38:11;;;;;;;18.73;11.75;;;;;;;;;;4944606;28;20047;-70
2022/06/24 02:40:47;;;;;;;19.50;11.70;;;;;;;;;;4946425;28;20058;-70
2022/06/24 02:43:15;;;;;;;19.40;11.50;;;;;;;;;;4960908;28;20047;-70
2022/06/24 02:45:43;;;;;;;20.45;11.27;;;;;;;;;;4960960;28;20130;-70
2022/06/24 02:48:11;;;;;;;17.27;10.90;;;;;;;;;;4941031;28;20047;-70
2022/06/24 02:50:39;;;;;;;17.65;11.60;;;;;;;;;;4943677;28;20054;-70
2022/06/24 02:53:07;;;;;;;19.27;11.95;;;;;;;;;;4945027;28;20047;-70
2022/06/24 02:55:34;;;;;;;14.98;11.20;;;;;;;;;;4959218;28;20172;-70
2022/06/24 02:58:01;;;;;;;20.85;11.43;;;;;;;;;;4941814;28;20062;-70
2022/06/24 03:00:28;;;;;;;18.92;10.45;;;;;;;;;;4947693;28;20062;-70
2022/06/24 03:02:55;;;;;;;21.10;11.00;;;;;;;;;;4944201;28;20050;-70
2022/06/24 03:05:24;;;;;;;24.67;11.07;;;;;;;;;;4945604;28;20441;-70
2022/06/24 03:07:52;;;;;;;13.85;9.93;;;;;;;;;;4948208;28;20217;-70
2022/06/24 03:10:19;;;;;;;19.85;11.32;;;;;;;;;;4963942;28;20048;-70
2022/06/24 03:12:46;;;;;;;16.33;11.35;;;;;;;;;;4944344;28;20059;-70
2022/06/24 03:15:13;;;;;;;17.50;11.18;;;;;;;;;;4944360;28;20647;-70
2022/06/24 03:17:41;;;;;;;15.02;10.68;;;;;;;;;;4945170;28;20051;-70
2022/06/24 03:20:08;;;;;;;19.45;11.32;;;;;;;;;;4944408;29;20110;-70
2022/06/24 03:22:37;;;;;;;19.92;10.98;;;;;;;;;;4944255;28;20586;-70
2022/06/24 03:25:05;;;;;;;18.17;11.10;;;;;;;;;;4940213;28;20054;-70
2022/06/24 03:27:33;;;;;;;14.52;10.27;;;;;;;;;;4940639;28;20059;-70
2022/06/24 03:30:00;;;;;;;17.23;10.60;;;;;;;;;;4954253;28;20055;-70
2022/06/24 03:32:28;;;;;;;15.05;10.50;;;;;;;;;;4940461;28;20055;-70
2022/06/24 03:34:55;;;;;;;18.83;9.68;;;;;;;;;;4941145;28;20055;-70
2022/06/24 03:37:22;;;;;;;15.50;10.20;;;;;;;;;;4938729;28;20526;-70
2022/06/24 03:39:51;;;;;;;15.98;10.27;;;;;;;;;;4946285;28;20053;-70
2022/06/24 03:42:18;;;;;;;18.50;11.57;;;;;;;;;;4956984;28;20062;-70
2022/06/24 03:44:45;;;;;;;19.05;10.93;;;;;;;;;;4944971;28;20062;-70
2022/06/24 03:47:12;;;;;;;17.85;11.05;;;;;;;;;;4943755;28;20043;-70
2022/06/24 03:49:39;;;;;;;17.33;10.93;;;;;;;;;;4945999;28;20046;-70
2022/06/24 03:52:07;;;;;;;18.88;11.40;;;;;;;;;;4961706;28;20053;-70
2022/06/24 03:54:35;;;;;;;23.17;11.60;;;;;;;;;;4940901;28;20059;-70
2022/06/24 03:57:04;;;;;;;19.33;11.10;;;;;;;;;;4944507;28;20050;-70
2022/06/24 03:59:31;;;;;;;19.38;11.05;;;;;;;;;;4945181;28;20106;-70
2022/06/24 04:01:58;;;;;;;24.10;11.05;;;;;;;;;;4943446;28;20100;-70
2022/06/24 04:04:26;;;;;;;21.85;11.20;;;;;;;;;;4960263;28;20463;-70
2022/06/24 04:06:53;;;;;;;18.55;10.88;;;;;;;;;;4942170;28;20110;-70
2022/06/24 04:09:20;;;;;;;21.30;12.73;;;;;;;;;;4944908;28;20073;-70
2022/06/24 04:11:47;;;;;;;19.83;13.63;;;;;;;;;;4945983;28;20061;-70
2022/06/24 04:15:13;;;;;;;23.23;13.68;;;;;;;;;;4938241;28;20059;-70
2022/06/24 04:17:05;;;;;;;24.88;14.65;;;;;;;;;;4944076;28;20464;-70
2022/06/24 04:19:32;;;;;;;25.33;14.27;;;;;;;;;;4939740;28;20062;-70
2022/06/24 04:21:59;;;;;;;20.00;13.02;;;;;;;;;;4940717;28;20047;-70
2022/06/24 04:24:26;;;;;;;24.42;11.15;;;;;;;;;;4956491;28;20109;-70
2022/06/24 04:26:53;;;;;;;28.65;8.95;;;;;;;;;;4939911;28;20449;-70
2022/06/24 04:29:22;;;;;;;28.92;7.68;;;;;;;;;;4940110;28;20505;-70
2022/06/24 04:31:49;;;;;;;24.48;6.60;;;;;;;;;;4939447;28;20121;-70
2022/06/24 04:34:16;;;;;;;30.38;5.82;;;;;;;;;;4936460;28;20171;-70
2022/06/24 04:36:44;;;;;;;22.65;5.53;;;;;;;;;;4939955;28;20050;-70
2022/06/24 04:39:11;;;;;;;21.40;4.60;;;;;;;;;;4943136;28;20047;-70
2022/06/24 04:41:38;;;;;;;24.10;4.43;;;;;;;;;;4947962;28;20055;-70
2022/06/24 04:44:05;;;;;;;19.52;4.20;;;;;;;;;;4939494;28;20073;-70
2022/06/24 04:46:34;;;;;;;22.92;4.30;;;;;;;;;;4944952;28;20183;-71
2022/06/24 04:49:01;;;;;;;16.63;3.60;;;;;;;;;;4938193;28;20097;-71
2022/06/24 04:51:29;;;;;;;15.45;3.40;;;;;;;;;;4943193;28;20042;-70
2022/06/24 04:53:56;;;;;;;16.23;4.32;;;;;;;;;;4939009;28;20051;-70
2022/06/24 04:56:23;;;;;;;16.90;3.97;;;;;;;;;;4940285;28;20092;-70
2022/06/24 04:58:51;;;;;;;11.02;3.42;;;;;;;;;;4939646;28;20046;-72
2022/06/24 05:01:18;;;;;;;10.85;3.45;;;;;;;;;;4937205;28;20806;-72
2022/06/24 05:03:46;;;;;;;8.75;3.13;;;;;;;;;;4939965;28;20046;-73
2022/06/24 05:06:14;;;;;;;12.52;3.50;;;;;;;;;;4940783;28;20478;-73
2022/06/24 05:08:42;;;;;;;8.32;3.58;;;;;;;;;;4937081;28;20043;-74
2022/06/24 05:11:09;;;;;;;8.18;3.70;;;;;;;;;;4935622;28;20056;-74
2022/06/24 05:13:36;;;;;;;10.93;3.55;;;;;;;;;;4940576;28;20505;-73
2022/06/24 05:16:03;;;;;;;11.15;3.90;;;;;;;;;;4942589;28;20050;-73
2022/06/24 05:18:31;;;;;;;15.43;3.55;;;;;;;;;;4942085;28;20104;-73
2022/06/24 05:20:59;;;;;;;10.40;3.50;;;;;;;;;;4944150;28;20043;-73
2022/06/24 05:23:28;;;;;;;9.45;3.38;;;;;;;;;;4939604;28;20054;-73
2022/06/24 05:25:55;;;;;;;12.13;3.60;;;;;;;;;;4943073;28;20532;-73
2022/06/24 05:28:22;;;;;;;11.23;3.33;;;;;;;;;;4942878;28;20055;-72
2022/06/24 05:30:55;;;;;;;16.67;3.78;;;;;;;;;;4941551;28;20055;-73
2022/06/24 05:33:22;;;;;;;14.07;3.70;;;;;;;;;;4943506;28;20043;-71
2022/06/24 05:35:52;;;;;;;41.42;6.45;;;;;;;;;;4945744;28;20675;-72
2022/06/24 05:38:21;;;;;;;64.15;8.38;;;;;;;;;;4940230;28;20136;-71
2022/06/24 05:40:49;;;;;;;51.08;10.43;;;;;;;;;;4943898;28;20086;-71
2022/06/24 05:43:17;;;;;;;29.98;5.30;;;;;;;;;;4945716;28;20078;-70
2022/06/24 05:45:44;;;;;;;23.20;6.05;;;;;;;;;;4949582;28;20055;-70
2022/06/24 05:48:11;;;;;;;34.72;6.57;;;;;;;;;;4944225;28;20142;-70
2022/06/24 05:50:39;;;;;;;18.50;5.13;;;;;;;;;;4945929;28;20120;-71
2022/06/24 05:55:57;;;;;;;20.02;5.43;;;;;;;;;;4947034;28;20058;-71
2022/06/24 05:58:24;;;;;;;37.88;8.15;;;;;;;;;;4947787;28;20643;-72
2022/06/24 06:00:51;;;;;;;110.65;18.75;;;;;;;;;;4947866;28;20051;-72
2022/06/24 06:03:19;;;;;;;57.35;10.85;;;;;;;;;;4950916;28;20150;-72
2022/06/24 06:05:46;;;;;;;25.13;5.85;;;;;;;;;;4948997;28;20047;-72
2022/06/24 06:08:13;;;;;;;37.88;8.48;;;;;;;;;;4952968;28;20050;-72
2022/06/24 06:10:40;;;;;;;33.22;7.00;;;;;;;;;;4949677;28;21297;-72
2022/06/24 06:13:09;;;;;;;37.72;8.50;;;;;;;;;;4951701;28;20165;-72
2022/06/24 06:15:36;;;;;;;30.00;7.82;;;;;;;;;;4950940;28;20055;-72
2022/06/24 06:18:03;;;;;;;26.75;7.13;;;;;;;;;;4950193;28;20568;-72
2022/06/24 06:20:31;;;;;;;24.85;7.45;;;;;;;;;;4951385;28;20054;-72
2022/06/24 06:22:58;;;;;;;30.75;8.52;;;;;;;;;;4950830;28;20067;-72
2022/06/24 06:25:25;;;;;;;40.30;10.05;;;;;;;;;;4951072;28;20131;-72
2022/06/24 06:27:52;;;;;;;38.50;11.43;;;;;;;;;;4951187;28;20074;-72
2022/06/24 06:30:21;;;;;;;23.02;9.15;;;;;;;;;;4945711;28;20059;-72
2022/06/24 06:32:48;;;;;;;35.13;12.45;;;;;;;;;;4948563;28;20046;-72
2022/06/24 06:35:15;;;;;;;19.77;10.50;;;;;;;;;;4952760;28;20066;-72
2022/06/24 06:37:43;;;;;;;18.08;9.55;;;;;;;;;;4945679;28;20076;-72
2022/06/24 06:40:10;;;;;;;27.52;12.93;;;;;;;;;;4946825;28;20560;-72
2022/06/24 06:42:37;;;;;;;28.83;12.75;;;;;;;;;;4944243;28;20070;-72
2022/06/24 06:45:05;;;;;;;30.63;13.05;;;;;;;;;;4943514;28;20149;-72
2022/06/24 06:47:34;;;;;;;35.40;15.15;;;;;;;;;;4948594;28;20501;-71
2022/06/24 06:50:04;;;;;;;27.00;13.18;;;;;;;;;;4948313;28;20438;-71
2022/06/24 06:52:31;;;;;;;22.30;11.35;;;;;;;;;;4950500;28;20050;-71
2022/06/24 06:54:59;;;;;;;25.33;12.07;;;;;;;;;;4952719;28;20051;-71
2022/06/24 06:57:26;;;;;;;25.90;12.55;;;;;;;;;;4950441;28;20066;-71
2022/06/24 06:59:53;;;;;;;38.45;17.63;;;;;;;;;;4947175;28;20050;-71
2022/06/24 07:02:20;;;;;;;83.90;26.38;;;;;;;;;;4943026;28;20050;-71
2022/06/24 07:04:49;;;;;;;22.63;12.23;;;;;;;;;;4950242;28;20478;-71
2022/06/24 07:07:16;;;;;;;47.20;20.75;;;;;;;;;;4947391;28;20057;-71
2022/06/24 07:09:44;;;;;;;40.58;17.70;;;;;;;;;;4950758;28;20054;-71
2022/06/24 07:12:13;;;;;;;17.88;10.48;;;;;;;;;;4948304;28;20134;-71
2022/06/24 07:14:41;;;;;;;20.42;11.35;;;;;;;;;;4951319;28;20073;-71
2022/06/24 07:17:08;;;;;;;19.60;9.85;;;;;;;;;;4945039;28;20078;-72
2022/06/24 07:19:36;;;;;;;14.45;10.10;;;;;;;;;;4944339;28;20063;-72
2022/06/24 07:22:05;;;;;;;22.15;12.02;;;;;;;;;;4944395;28;20114;-72
2022/06/24 07:24:32;;;;;;;21.50;11.23;;;;;;;;;;4944461;28;20063;-71
2022/06/24 07:27:00;;;;;;;18.55;10.65;;;;;;;;;;4940902;28;20054;-71
2022/06/24 07:29:27;;;;;;;16.15;8.95;;;;;;;;;;4946209;28;20062;-71
2022/06/24 07:31:54;;;;;;;22.17;13.98;;;;;;;;;;4949736;28;20150;-71
2022/06/24 07:34:21;;;;;;;15.75;9.20;;;;;;;;;;4950524;28;20055;-71
2022/06/24 07:36:48;;;;;;;37.10;16.45;;;;;;;;;;4949464;28;20058;-71
2022/06/24 07:39:17;;;;;;;16.15;9.13;;;;;;;;;;4949826;28;20047;-71
2022/06/24 07:41:44;;;;;;;31.30;14.90;;;;;;;;;;4949273;28;20150;-71
2022/06/24 07:44:11;;;;;;;27.55;13.73;;;;;;;;;;4951783;28;20121;-71
2022/06/24 07:46:39;;;;;;;54.15;25.30;;;;;;;;;;4948075;28;20098;-71
2022/06/24 07:49:06;;;;;;;24.70;13.45;;;;;;;;;;4951067;28;20588;-71
2022/06/24 07:51:33;;;;;;;39.10;18.83;;;;;;;;;;4947117;28;20059;-71
2022/06/24 07:54:00;;;;;;;31.27;16.73;;;;;;;;;;4951959;28;20418;-71
2022/06/24 07:59:14;;;;;;;19.95;13.30;;;;;;;;;;4949543;28;20054;-71
2022/06/24 08:01:41;;;;;;;34.65;15.63;;;;;;;;;;4949845;28;20505;-72
2022/06/24 08:04:08;;;;;;;48.90;18.33;;;;;;;;;;4945532;28;20055;-72
2022/06/24 08:06:36;;;;;;;24.98;12.88;;;;;;;;;;4944107;28;20057;-72
2022/06/24 08:09:03;;;;;;;29.80;14.10;;;;;;;;;;4947242;29;20051;-72
2022/06/24 08:11:32;;;;;;;30.20;14.45;;;;;;;;;;4949097;28;20051;-72
2022/06/24 08:13:59;;;;;;;13.60;9.25;;;;;;;;;;4950070;28;20054;-72
2022/06/24 08:16:27;;;;;;;22.33;11.80;;;;;;;;;;4948577;28;20444;-72
2022/06/24 08:18:54;;;;;;;17.83;9.93;;;;;;;;;;4951394;28;20069;-72
2022/06/24 08:21:22;;;;;;;46.05;18.30;;;;;;;;;;4950458;28;20054;-72
2022/06/24 08:23:49;;;;;;;16.60;8.30;;;;;;;;;;4950728;28;20054;-72
2022/06/24 08:26:16;;;;;;;12.20;8.15;;;;;;;;;;4948895;28;20051;-72
2022/06/24 08:28:45;;;;;;;10.70;6.18;;;;;;;;;;4951892;28;20054;-72
2022/06/24 08:31:12;;;;;;;9.88;6.75;;;;;;;;;;4946983;28;20054;-71
2022/06/24 08:33:40;;;;;;;13.63;6.82;;;;;;;;;;4949931;28;20501;-71
2022/06/24 08:36:07;;;;;;;14.13;8.38;;;;;;;;;;4946794;28;20174;-71
2022/06/24 08:38:34;;;;;;;12.80;6.20;;;;;;;;;;4950282;28;20054;-71
2022/06/24 08:41:02;;;;;;;10.20;6.32;;;;;;;;;;4949142;28;20053;-71
2022/06/24 08:43:31;;;;;;;13.15;6.85;;;;;;;;;;4948842;28;20059;-70
2022/06/24 08:46:00;;;;;;;12.00;6.57;;;;;;;;;;4948601;28;20059;-70
2022/06/24 08:48:28;;;;;;;20.90;8.55;;;;;;;;;;4948042;28;20042;-71
2022/06/24 08:50:57;;;;;;;23.00;9.48;;;;;;;;;;4950824;28;20058;-70
2022/06/24 08:53:26;;;;;;;17.83;8.63;;;;;;;;;;4942596;28;20055;-70
2022/06/24 08:55:54;;;;;;;15.32;8.20;;;;;;;;;;4945835;28;20062;-70
2022/06/24 08:58:22;;;;;;;22.23;9.88;;;;;;;;;;4950730;28;20086;-70
2022/06/24 09:00:49;;;;;;;15.18;7.63;;;;;;;;;;4947444;28;20062;-70
2022/06/24 09:03:20;;;;;;;69.13;12.40;;;;;;;;;;4944641;28;20058;-71
2022/06/24 09:05:47;;;;;;;58.42;11.95;;;;;;;;;;4959776;28;20057;-70
2022/06/24 09:08:16;;;;;;;25.90;10.05;;;;;;;;;;4941879;28;20047;-70
2022/06/24 09:11:05;;;;;;;26.52;9.60;;;;;;;;;;4945705;28;20054;-70
2022/06/24 09:13:32;;;;;;;16.17;8.35;;;;;;;;;;4940979;28;20055;-70
2022/06/24 09:16:08;;;;;;;96.63;22.70;;;;;;;;;;4960739;28;20078;-70
2022/06/24 09:18:36;;;;;;;21.00;9.10;;;;;;;;;;4939199;28;20418;-70
2022/06/24 09:21:04;;;;;;;192.73;32.47;;;;;;;;;;4941588;28;20054;-71
2022/06/24 09:23:31;;;;;;;9.25;4.85;;;;;;;;;;4941570;28;20051;-71
2022/06/24 09:26:00;;;;;;;10.20;5.88;;;;;;;;;;4941138;28;20689;-71
2022/06/24 09:28:28;;;;;;;20.63;7.32;;;;;;;;;;4945222;28;20069;-71
2022/06/24 09:31:01;;;;;;;15.75;7.20;;;;;;;;;;4963486;28;20131;-71
2022/06/24 09:33:28;;;;;;;15.25;5.85;;;;;;;;;;4941568;28;20054;-72
2022/06/24 09:36:02;;;;;;;17.35;6.82;;;;;;;;;;4954684;28;20094;-72
2022/06/24 09:38:29;;;;;;;8.35;5.07;;;;;;;;;;4948277;28;20043;-72
2022/06/24 09:41:01;;;;;;;11.20;5.13;;;;;;;;;;4952502;28;20158;-72
2022/06/24 09:43:30;;;;;;;12.00;5.50;;;;;;;;;;4954480;28;20138;-72
2022/06/24 09:45:58;;;;;;;10.20;5.90;;;;;;;;;;4949704;28;20047;-72
2022/06/24 09:48:29;;;;;;;17.50;7.28;;;;;;;;;;4944131;28;20070;-72
2022/06/24 09:50:57;;;;;;;15.63;5.65;;;;;;;;;;4947335;28;20081;-72
2022/06/24 09:53:27;;;;;;;194.30;29.73;;;;;;;;;;4950722;28;20510;-72
2022/06/24 09:55:54;;;;;;;10.68;5.82;;;;;;;;;;4948468;28;20055;-72
2022/06/24 09:58:21;;;;;;;23.77;7.97;;;;;;;;;;4949086;28;20398;-72
2022/06/24 10:00:48;;;;;;;15.77;7.82;;;;;;;;;;4949987;28;20054;-72
2022/06/24 10:03:16;;;;;;;83.13;17.95;;;;;;;;;;4954087;28;20052;-72
2022/06/24 10:05:44;;;;;;;29.80;12.88;;;;;;;;;;4954394;28;20055;-71
2022/06/24 10:08:12;;;;;;;95.40;24.25;;;;;;;;;;4948219;28;20051;-71
2022/06/24 10:10:44;;;;;;;18.73;10.05;;;;;;;;;;4945590;29;20062;-77
2022/06/24 10:13:14;;;;;;;11.77;7.03;;;;;;;;;;4948379;28;20055;-71
2022/06/24 10:15:42;;;;;;;19.33;10.65;;;;;;;;;;4945298;28;20779;-71
2022/06/24 10:18:09;;;;;;;29.48;13.82;;;;;;;;;;4955663;28;20058;-71
2022/06/24 10:20:37;;;;;;;7.30;5.60;;;;;;;;;;4955360;28;20050;-71
2022/06/24 10:23:04;;;;;;;12.18;6.68;;;;;;;;;;4948918;28;20054;-71
2022/06/24 10:25:47;;;;;;;21.30;9.32;;;;;;;;;;4946368;28;20133;-71
2022/06/24 10:28:15;;;;;;;120.78;28.25;;;;;;;;;;4940150;28;20070;-71
2022/06/24 10:30:55;;;;;;;13.93;7.20;;;;;;;;;;4951712;28;20606;-71
2022/06/24 10:33:23;;;;;;;16.08;8.48;;;;;;;;;;4951687;28;20514;-71
2022/06/24 10:36:01;;;;;;;11.98;7.57;;;;;;;;;;4955119;28;20114;-71
2022/06/24 10:38:35;;;;;;;13.25;9.18;;;;;;;;;;4952246;28;20046;-71
2022/06/24 10:41:03;;;;;;;14.77;9.73;;;;;;;;;;4954516;28;20491;-71
2022/06/24 10:43:35;;;;;;;17.27;9.95;;;;;;;;;;4953059;28;20120;-71
2022/06/24 10:46:21;;;;;;;21.67;15.15;;;;;;;;;;4952649;28;20054;-71
2022/06/24 10:48:59;;;;;;;21.50;14.30;;;;;;;;;;4950419;28;20125;-71
2022/06/24 10:51:28;;;;;;;15.75;11.27;;;;;;;;;;4951080;28;20149;-72
2022/06/24 10:54:14;;;;;;;15.38;11.65;;;;;;;;;;4951639;28;20126;-71
2022/06/24 10:56:43;;;;;;;21.08;14.55;;;;;;;;;;4950666;28;20050;-71
2022/06/24 10:59:13;;;;;;;20.67;14.82;;;;;;;;;;4966589;28;20101;-71
2022/06/24 11:01:42;;;;;;;18.38;13.23;;;;;;;;;;4947577;28;20050;-71
2022/06/24 11:04:12;;;;;;;19.58;14.88;;;;;;;;;;4952484;28;20450;-71
2022/06/24 11:06:39;;;;;;;24.23;17.80;;;;;;;;;;4948188;28;20137;-71
2022/06/24 11:09:07;;;;;;;20.30;14.52;;;;;;;;;;4950902;28;20050;-71
2022/06/24 11:11:34;;;;;;;23.60;15.52;;;;;;;;;;4950046;28;20059;-71
2022/06/24 11:14:22;;;;;;;26.20;17.40;;;;;;;;;;4940326;28;20053;-71
2022/06/24 11:16:50;;;;;;;25.02;16.48;;;;;;;;;;4946122;28;20157;-71
2022/06/24 11:19:18;;;;;;;20.38;13.35;;;;;;;;;;4947331;28;20565;-71
2022/06/24 11:21:49;;;;;;;23.60;13.93;;;;;;;;;;4948433;29;20051;-71
2022/06/24 11:24:19;;;;;;;20.48;13.18;;;;;;;;;;4946221;28;20050;-71
2022/06/24 11:27:01;;;;;;;28.55;18.63;;;;;;;;;;4944014;28;20113;-71
2022/06/24 11:29:28;;;;;;;26.92;16.17;;;;;;;;;;4944681;28;20087;-71
2022/06/24 11:31:57;;;;;;;23.95;14.50;;;;;;;;;;4939544;28;20758;-71
2022/06/24 11:34:24;;;;;;;31.58;16.73;;;;;;;;;;4940755;28;20070;-71
2022/06/24 11:36:51;;;;;;;22.52;13.57;;;;;;;;;;4942647;28;20074;-71
2022/06/24 11:39:19;;;;;;;20.98;13.77;;;;;;;;;;4946530;28;20051;-71
2022/06/24 11:41:48;;;;;;;22.75;13.85;;;;;;;;;;4944991;28;20055;-71
2022/06/24 11:44:15;;;;;;;22.65;12.82;;;;;;;;;;4942147;28;20057;-71
2022/06/24 11:46:49;;;;;;;24.10;14.35;;;;;;;;;;4944030;28;20081;-71
2022/06/24 11:49:18;;;;;;;18.50;12.15;;;;;;;;;;4946210;28;20113;-71
2022/06/24 11:51:46;;;;;;;17.77;11.95;;;;;;;;;;4941166;28;20113;-71
2022/06/24 11:54:14;;;;;;;16.77;12.57;;;;;;;;;;4945855;29;20047;-71
2022/06/24 11:56:43;;;;;;;21.60;12.85;;;;;;;;;;4948787;28;20506;-71
2022/06/24 11:59:11;;;;;;;20.58;12.70;;;;;;;;;;4947793;28;20053;-71
2022/06/24 12:01:39;;;;;;;18.05;12.25;;;;;;;;;;4952097;28;20459;-71
2022/06/24 12:04:08;;;;;;;23.67;12.80;;;;;;;;;;4945687;28;20145;-71
2022/06/24 12:06:37;;;;;;;15.10;11.80;;;;;;;;;;4950223;28;20457;-71
2022/06/24 12:09:04;;;;;;;18.15;12.57;;;;;;;;;;4948483;28;20109;-71
2022/06/24 12:11:37;;;;;;;16.05;11.82;;;;;;;;;;4949020;28;20063;-71
2022/06/24 12:14:05;;;;;;;19.42;12.77;;;;;;;;;;4944073;28;20699;-71
2022/06/24 12:16:47;;;;;;;18.65;13.15;;;;;;;;;;4947757;28;20057;-71
2022/06/24 12:19:15;;;;;;;21.63;12.85;;;;;;;;;;4945453;28;20048;-71
2022/06/24 12:21:43;;;;;;;18.95;12.50;;;;;;;;;;4948672;28;20070;-71
2022/06/24 12:24:20;;;;;;;22.13;13.75;;;;;;;;;;4949429;28;20062;-71
2022/06/24 12:26:47;;;;;;;19.05;13.75;;;;;;;;;;4947725;28;20061;-71
2022/06/24 12:29:14;;;;;;;17.80;13.20;;;;;;;;;;4948394;28;21414;-71
2022/06/24 12:31:50;;;;;;;17.95;13.70;;;;;;;;;;4948205;28;20117;-71
2022/06/24 12:34:25;;;;;;;19.50;15.07;;;;;;;;;;4945266;28;20070;-71
2022/06/24 12:36:57;;;;;;;19.30;14.93;;;;;;;;;;4943415;28;20149;-71
2022/06/24 12:39:29;;;;;;;18.05;14.38;;;;;;;;;;4940418;28;20063;-71
2022/06/24 12:41:56;;;;;;;21.63;14.05;;;;;;;;;;4945864;28;20935;-71
2022/06/24 12:44:24;;;;;;;19.70;14.63;;;;;;;;;;4942891;28;20062;-71
2022/06/24 12:52:38;;;;;;;18.65;14.73;;;;;;;;;;4944679;28;20103;-71
2022/06/24 12:55:06;;;;;;;18.38;15.18;;;;;;;;;;4942899;28;20078;-73
2022/06/24 12:57:33;;;;;;;22.13;15.85;;;;;;;;;;4947424;28;20102;-71
2022/06/24 13:00:01;;;;;;;24.00;16.63;;;;;;;;;;4946933;28;20050;-72
2022/06/24 13:02:28;;;;;;;20.00;16.25;;;;;;;;;;4942105;28;20077;-72
2022/06/24 13:04:55;;;;;;;19.48;17.10;;;;;;;;;;4945699;28;20062;-72
2022/06/24 13:07:22;;;;;;;21.30;18.00;;;;;;;;;;4941715;28;20055;-72
2022/06/24 13:09:51;;;;;;;20.52;17.05;;;;;;;;;;4945770;28;20466;-72
2022/06/24 13:12:18;;;;;;;21.90;16.98;;;;;;;;;;4940975;28;20058;-72
2022/06/24 13:14:46;;;;;;;20.58;17.13;;;;;;;;;;4941496;28;20054;-72
2022/06/24 13:17:13;;;;;;;21.08;15.80;;;;;;;;;;4939662;28;20051;-72
2022/06/24 13:19:40;;;;;;;21.80;15.82;;;;;;;;;;4943724;28;20057;-72
2022/06/24 13:22:07;;;;;;;17.20;14.80;;;;;;;;;;4946588;28;20047;-72
2022/06/24 13:24:35;;;;;;;15.43;12.38;;;;;;;;;;4937899;28;20054;-72
2022/06/24 13:27:05;;;;;;;16.80;13.32;;;;;;;;;;4943537;28;20134;-72
2022/06/24 13:29:32;;;;;;;17.88;14.00;;;;;;;;;;4941187;28;20063;-73
2022/06/24 13:31:59;;;;;;;17.83;14.15;;;;;;;;;;4947227;28;20063;-73
2022/06/24 13:34:27;;;;;;;17.98;14.00;;;;;;;;;;4948977;28;20043;-72
2022/06/24 13:36:54;;;;;;;16.90;13.98;;;;;;;;;;4940885;28;20070;-72
2022/06/24 13:39:21;;;;;;;19.00;13.23;;;;;;;;;;4937386;28;20422;-72
2022/06/24 13:41:49;;;;;;;15.95;12.88;;;;;;;;;;4940985;28;20095;-72
2022/06/24 13:44:18;;;;;;;13.15;11.65;;;;;;;;;;4939066;28;20043;-72
2022/06/24 13:46:45;;;;;;;17.00;12.27;;;;;;;;;;4943832;28;20058;-72
2022/06/24 13:49:12;;;;;;;15.40;12.38;;;;;;;;;;4941183;28;20113;-72
2022/06/24 13:51:40;;;;;;;13.52;11.95;;;;;;;;;;4943439;28;20045;-72
2022/06/24 13:54:07;;;;;;;12.18;10.88;;;;;;;;;;4937260;28;20063;-72
2022/06/24 13:56:34;;;;;;;13.73;11.32;;;;;;;;;;4943245;28;20105;-72
2022/06/24 13:59:02;;;;;;;13.63;11.10;;;;;;;;;;4940185;28;20066;-72
2022/06/24 14:01:30;;;;;;;15.93;10.80;;;;;;;;;;4938149;28;20057;-72
2022/06/24 14:03:57;;;;;;;12.82;11.20;;;;;;;;;;4942901;28;20046;-72
2022/06/24 14:06:25;;;;;;;13.80;11.05;;;;;;;;;;4940611;28;20457;-72
2022/06/24 14:08:52;;;;;;;12.20;10.85;;;;;;;;;;4945468;28;20054;-72
2022/06/24 14:11:19;;;;;;;17.38;12.13;;;;;;;;;;4939956;28;20046;-72
2022/06/24 14:13:46;;;;;;;12.57;10.75;;;;;;;;;;4945387;28;20047;-72
2022/06/24 14:16:13;;;;;;;19.13;12.07;;;;;;;;;;4938551;28;20105;-72
2022/06/24 14:18:42;;;;;;;14.27;11.65;;;;;;;;;;4942886;28;20047;-72
2022/06/24 14:21:09;;;;;;;14.30;11.45;;;;;;;;;;4945152;28;20065;-72
2022/06/24 14:26:21;;;;;;;15.32;12.32;;;;;;;;;;4945987;28;20533;-72
2022/06/24 14:28:51;;;;;;;16.90;11.93;;;;;;;;;;4943338;28;20055;-71
2022/06/24 14:31:19;;;;;;;14.63;11.23;;;;;;;;;;4940548;28;20174;-71
2022/06/24 14:33:47;;;;;;;14.30;11.63;;;;;;;;;;4949188;28;20155;-71
2022/06/24 14:36:14;;;;;;;17.75;11.55;;;;;;;;;;4946226;28;20062;-70
2022/06/24 14:41:26;;;;;;;16.85;12.70;;;;;;;;;;4959192;28;20093;-71
2022/06/24 14:43:54;;;;;;;16.92;12.40;;;;;;;;;;4961148;28;20059;-71
2022/06/24 14:46:21;;;;;;;17.10;12.15;;;;;;;;;;4941639;28;20058;-72
2022/06/24 14:48:49;;;;;;;17.98;12.60;;;;;;;;;;4946116;28;20062;-71